sensor_id;sensor_type;location;lat;lon;timestamp;pressure;altitude;pressure_sealevel;temperature;humidity
74336;BME280;62755;-33.398;-70.572;2023-12-04T00:02:20;92880.00;;;23.97;31.73
74336;BME280;62755;-33.398;-70.572;2023-12-04T00:04:50;92881.75;;;23.89;31.93
74336;BME280;62755;-33.398;-70.572;2023-12-04T00:07:20;92883.25;;;23.79;32.58
74336;BME280;62755;-33.398;-70.572;2023-12-04T00:09:51;92881.03;;;23.72;32.40
74336;BME280;62755;-33.398;-70.572;2023-12-04T00:12:21;92885.72;;;23.88;32.44
74336;BME280;62755;-33.398;-70.572;2023-12-04T00:14:50;92886.22;;;23.87;32.20
74336;BME280;62755;-33.398;-70.572;2023-12-04T00:17:20;92889.22;;;24.00;32.22
74336;BME280;62755;-33.398;-70.572;2023-12-04T00:19:49;92886.72;;;23.91;32.42
74336;BME280;62755;-33.398;-70.572;2023-12-04T00:22:19;92898.66;;;23.99;32.02
74336;BME280;62755;-33.398;-70.572;2023-12-04T00:24:49;92889.69;;;24.04;32.44
74336;BME280;62755;-33.398;-70.572;2023-12-04T00:27:20;92893.44;;;23.84;32.50
74336;BME280;62755;-33.398;-70.572;2023-12-04T00:29:53;92893.94;;;23.99;32.01
74336;BME280;62755;-33.398;-70.572;2023-12-04T00:32:23;92898.94;;;23.79;32.69
74336;BME280;62755;-33.398;-70.572;2023-12-04T00:34:53;92898.94;;;23.90;32.60
74336;BME280;62755;-33.398;-70.572;2023-12-04T00:37:23;92900.66;;;23.98;32.44
74336;BME280;62755;-33.398;-70.572;2023-12-04T00:39:53;92904.16;;;23.77;32.43
74336;BME280;62755;-33.398;-70.572;2023-12-04T00:42:24;92895.47;;;23.67;32.77
74336;BME280;62755;-33.398;-70.572;2023-12-04T00:44:53;92901.44;;;23.60;33.21
74336;BME280;62755;-33.398;-70.572;2023-12-04T00:47:23;92907.19;;;23.57;32.93
74336;BME280;62755;-33.398;-70.572;2023-12-04T00:49:53;92894.47;;;23.59;33.17
74336;BME280;62755;-33.398;-70.572;2023-12-04T00:52:22;92900.44;;;23.52;33.21
74336;BME280;62755;-33.398;-70.572;2023-12-04T00:54:52;92877.56;;;23.33;33.27
74336;BME280;62755;-33.398;-70.572;2023-12-04T00:57:24;92908.91;;;23.54;33.22
74336;BME280;62755;-33.398;-70.572;2023-12-04T00:59:53;92909.16;;;23.34;33.69
74336;BME280;62755;-33.398;-70.572;2023-12-04T01:02:23;92910.41;;;23.33;33.33
74336;BME280;62755;-33.398;-70.572;2023-12-04T01:04:53;92908.38;;;23.39;33.29
74336;BME280;62755;-33.398;-70.572;2023-12-04T01:07:22;92907.66;;;23.44;33.87
74336;BME280;62755;-33.398;-70.572;2023-12-04T01:09:52;92906.91;;;23.43;33.37
74336;BME280;62755;-33.398;-70.572;2023-12-04T01:12:23;92909.38;;;23.47;33.09
74336;BME280;62755;-33.398;-70.572;2023-12-04T01:14:53;92915.63;;;23.36;33.63
74336;BME280;62755;-33.398;-70.572;2023-12-04T01:17:23;92918.81;;;23.29;33.80
74336;BME280;62755;-33.398;-70.572;2023-12-04T01:19:52;92917.31;;;23.17;33.62
74336;BME280;62755;-33.398;-70.572;2023-12-04T01:22:22;92923.78;;;23.20;33.93
74336;BME280;62755;-33.398;-70.572;2023-12-04T01:24:52;92900.91;;;23.23;33.47
74336;BME280;62755;-33.398;-70.572;2023-12-04T01:27:23;92923.06;;;23.36;33.71
74336;BME280;62755;-33.398;-70.572;2023-12-04T01:29:53;92930.53;;;23.35;33.80
74336;BME280;62755;-33.398;-70.572;2023-12-04T01:32:22;92926.81;;;23.44;33.46
74336;BME280;62755;-33.398;-70.572;2023-12-04T01:34:52;92935.97;;;23.30;33.99
74336;BME280;62755;-33.398;-70.572;2023-12-04T01:37:21;92934.97;;;23.27;33.91
74336;BME280;62755;-33.398;-70.572;2023-12-04T01:39:51;92928.22;;;23.12;34.00
74336;BME280;62755;-33.398;-70.572;2023-12-04T01:42:21;92927.72;;;23.08;34.34
74336;BME280;62755;-33.398;-70.572;2023-12-04T01:44:52;92933.97;;;23.19;34.26
74336;BME280;62755;-33.398;-70.572;2023-12-04T01:47:22;92935.72;;;23.28;33.89
74336;BME280;62755;-33.398;-70.572;2023-12-04T01:49:52;92940.97;;;23.31;33.96
74336;BME280;62755;-33.398;-70.572;2023-12-04T01:52:21;92932.94;;;23.00;34.54
74336;BME280;62755;-33.398;-70.572;2023-12-04T01:54:51;92943.59;;;22.93;34.31
74336;BME280;62755;-33.398;-70.572;2023-12-04T01:57:21;92939.91;;;22.96;34.61
74336;BME280;62755;-33.398;-70.572;2023-12-04T01:59:53;92933.94;;;23.08;34.36
74336;BME280;62755;-33.398;-70.572;2023-12-04T02:02:22;92933.69;;;23.06;34.45
74336;BME280;62755;-33.398;-70.572;2023-12-04T02:04:54;92925.22;;;22.88;35.06
74336;BME280;62755;-33.398;-70.572;2023-12-04T02:07:24;92936.16;;;22.88;34.92
74336;BME280;62755;-33.398;-70.572;2023-12-04T02:09:54;92933.63;;;22.79;35.05
74336;BME280;62755;-33.398;-70.572;2023-12-04T02:12:24;92938.06;;;22.70;34.77
74336;BME280;62755;-33.398;-70.572;2023-12-04T02:14:55;92933.63;;;22.79;35.44
74336;BME280;62755;-33.398;-70.572;2023-12-04T02:17:26;92932.25;;;22.52;36.15
74336;BME280;62755;-33.398;-70.572;2023-12-04T02:19:57;92938.03;;;22.59;35.51
74336;BME280;62755;-33.398;-70.572;2023-12-04T02:22:27;92932.59;;;22.70;35.46
74336;BME280;62755;-33.398;-70.572;2023-12-04T02:24:58;92931.66;;;22.85;35.68
74336;BME280;62755;-33.398;-70.572;2023-12-04T02:27:33;92940.53;;;22.68;36.26
74336;BME280;62755;-33.398;-70.572;2023-12-04T02:30:11;92931.38;;;22.77;36.02
74336;BME280;62755;-33.398;-70.572;2023-12-04T02:32:45;92922.16;;;22.75;36.12
74336;BME280;62755;-33.398;-70.572;2023-12-04T02:35:16;92913.63;;;22.50;36.44
74336;BME280;62755;-33.398;-70.572;2023-12-04T02:37:49;92926.88;;;22.68;36.74
74336;BME280;62755;-33.398;-70.572;2023-12-04T02:40:21;92921.41;;;22.68;36.31
74336;BME280;62755;-33.398;-70.572;2023-12-04T02:42:51;92922.91;;;22.75;36.48
74336;BME280;62755;-33.398;-70.572;2023-12-04T02:45:21;92923.16;;;22.72;36.80
74336;BME280;62755;-33.398;-70.572;2023-12-04T02:47:50;92920.63;;;22.62;36.77
74336;BME280;62755;-33.398;-70.572;2023-12-04T02:50:20;92922.13;;;22.63;36.49
74336;BME280;62755;-33.398;-70.572;2023-12-04T02:52:50;92916.16;;;22.59;36.90
74336;BME280;62755;-33.398;-70.572;2023-12-04T02:55:21;92911.50;;;22.82;36.98
74336;BME280;62755;-33.398;-70.572;2023-12-04T02:57:51;92914.22;;;22.77;36.90
74336;BME280;62755;-33.398;-70.572;2023-12-04T03:00:20;92912.47;;;22.74;37.51
74336;BME280;62755;-33.398;-70.572;2023-12-04T03:02:50;92917.16;;;22.62;36.75
74336;BME280;62755;-33.398;-70.572;2023-12-04T03:05:20;92906.16;;;22.56;37.50
74336;BME280;62755;-33.398;-70.572;2023-12-04T03:07:49;92911.97;;;22.75;37.49
74336;BME280;62755;-33.398;-70.572;2023-12-04T03:10:21;92903.78;;;22.81;37.22
74336;BME280;62755;-33.398;-70.572;2023-12-04T03:12:50;92904.81;;;22.89;37.66
74336;BME280;62755;-33.398;-70.572;2023-12-04T03:15:20;92910.00;;;22.81;37.53
74336;BME280;62755;-33.398;-70.572;2023-12-04T03:17:50;92907.78;;;22.80;37.03
74336;BME280;62755;-33.398;-70.572;2023-12-04T03:20:19;92907.97;;;22.70;37.97
74336;BME280;62755;-33.398;-70.572;2023-12-04T03:22:49;92914.66;;;22.58;38.23
74336;BME280;62755;-33.398;-70.572;2023-12-04T03:25:20;92903.97;;;22.60;37.77
74336;BME280;62755;-33.398;-70.572;2023-12-04T03:27:50;92909.34;;;22.44;37.81
74336;BME280;62755;-33.398;-70.572;2023-12-04T03:30:19;92902.38;;;22.43;38.23
74336;BME280;62755;-33.398;-70.572;2023-12-04T03:32:49;92900.69;;;22.56;37.84
74336;BME280;62755;-33.398;-70.572;2023-12-04T03:35:19;92902.78;;;22.73;37.49
74336;BME280;62755;-33.398;-70.572;2023-12-04T03:37:47;92906.63;;;22.44;37.60
74336;BME280;62755;-33.398;-70.572;2023-12-04T03:40:17;92895.16;;;22.34;37.45
74336;BME280;62755;-33.398;-70.572;2023-12-04T03:42:49;92897.56;;;22.21;36.98
74336;BME280;62755;-33.398;-70.572;2023-12-04T03:45:18;92889.88;;;22.25;36.84
74336;BME280;62755;-33.398;-70.572;2023-12-04T03:47:48;92888.03;;;22.00;37.91
74336;BME280;62755;-33.398;-70.572;2023-12-04T03:50:18;92884.41;;;21.77;38.65
74336;BME280;62755;-33.398;-70.572;2023-12-04T03:52:47;92885.84;;;21.73;38.80
74336;BME280;62755;-33.398;-70.572;2023-12-04T03:55:17;92882.28;;;21.56;38.87
74336;BME280;62755;-33.398;-70.572;2023-12-04T03:57:48;92889.75;;;21.61;39.08
74336;BME280;62755;-33.398;-70.572;2023-12-04T04:00:18;92877.41;;;21.71;38.25
74336;BME280;62755;-33.398;-70.572;2023-12-04T04:02:48;92887.25;;;21.57;38.68
74336;BME280;62755;-33.398;-70.572;2023-12-04T04:05:18;92875.53;;;21.51;38.81
74336;BME280;62755;-33.398;-70.572;2023-12-04T04:07:47;92878.94;;;21.46;38.77
74336;BME280;62755;-33.398;-70.572;2023-12-04T04:10:17;92885.34;;;21.38;38.94
74336;BME280;62755;-33.398;-70.572;2023-12-04T04:12:48;92880.47;;;21.47;39.47
74336;BME280;62755;-33.398;-70.572;2023-12-04T04:15:18;92871.72;;;21.74;38.90
74336;BME280;62755;-33.398;-70.572;2023-12-04T04:17:48;92873.38;;;21.61;38.33
74336;BME280;62755;-33.398;-70.572;2023-12-04T04:20:17;92871.75;;;21.80;37.87
74336;BME280;62755;-33.398;-70.572;2023-12-04T04:22:48;92865.75;;;21.76;37.90
74336;BME280;62755;-33.398;-70.572;2023-12-04T04:25:18;92859.91;;;21.83;38.36
74336;BME280;62755;-33.398;-70.572;2023-12-04T04:27:50;92853.78;;;21.68;39.01
74336;BME280;62755;-33.398;-70.572;2023-12-04T04:30:20;92851.31;;;21.28;39.62
74336;BME280;62755;-33.398;-70.572;2023-12-04T04:32:50;92852.00;;;21.23;40.04
74336;BME280;62755;-33.398;-70.572;2023-12-04T04:35:20;92849.06;;;21.26;39.47
74336;BME280;62755;-33.398;-70.572;2023-12-04T04:37:49;92847.44;;;21.40;39.46
74336;BME280;62755;-33.398;-70.572;2023-12-04T04:40:19;92840.03;;;21.46;39.42
74336;BME280;62755;-33.398;-70.572;2023-12-04T04:42:50;92817.06;;;21.27;40.16
74336;BME280;62755;-33.398;-70.572;2023-12-04T04:45:20;92831.81;;;21.40;39.91
74336;BME280;62755;-33.398;-70.572;2023-12-04T04:47:49;92830.78;;;21.38;39.47
74336;BME280;62755;-33.398;-70.572;2023-12-04T04:50:19;92835.88;;;21.25;40.19
74336;BME280;62755;-33.398;-70.572;2023-12-04T04:52:49;92830.88;;;21.18;39.87
74336;BME280;62755;-33.398;-70.572;2023-12-04T04:55:18;92823.56;;;21.35;40.33
74336;BME280;62755;-33.398;-70.572;2023-12-04T04:57:49;92821.50;;;21.19;41.06
74336;BME280;62755;-33.398;-70.572;2023-12-04T05:00:19;92820.78;;;21.24;40.80
74336;BME280;62755;-33.398;-70.572;2023-12-04T05:02:49;92821.03;;;21.26;40.80
74336;BME280;62755;-33.398;-70.572;2023-12-04T05:05:18;92810.81;;;21.52;40.31
74336;BME280;62755;-33.398;-70.572;2023-12-04T05:07:48;92810.72;;;21.41;40.56
74336;BME280;62755;-33.398;-70.572;2023-12-04T05:10:18;92805.41;;;21.26;40.44
74336;BME280;62755;-33.398;-70.572;2023-12-04T05:12:49;92808.19;;;21.32;39.86
74336;BME280;62755;-33.398;-70.572;2023-12-04T05:15:19;92803.69;;;21.29;38.90
74336;BME280;62755;-33.398;-70.572;2023-12-04T05:17:48;92785.91;;;21.39;39.73
74336;BME280;62755;-33.398;-70.572;2023-12-04T05:20:18;92797.03;;;21.35;40.07
74336;BME280;62755;-33.398;-70.572;2023-12-04T05:22:48;92797.00;;;21.30;39.74
74336;BME280;62755;-33.398;-70.572;2023-12-04T05:25:17;92796.56;;;21.06;40.37
74336;BME280;62755;-33.398;-70.572;2023-12-04T05:27:47;92785.94;;;21.08;40.00
74336;BME280;62755;-33.398;-70.572;2023-12-04T05:30:18;92782.13;;;20.99;40.32
74336;BME280;62755;-33.398;-70.572;2023-12-04T05:32:48;92777.78;;;20.82;40.87
74336;BME280;62755;-33.398;-70.572;2023-12-04T05:35:17;92787.06;;;20.95;40.16
74336;BME280;62755;-33.398;-70.572;2023-12-04T05:37:47;92778.06;;;20.89;40.12
74336;BME280;62755;-33.398;-70.572;2023-12-04T05:40:17;92777.38;;;20.63;40.37
74336;BME280;62755;-33.398;-70.572;2023-12-04T05:42:46;92761.34;;;20.45;40.43
74336;BME280;62755;-33.398;-70.572;2023-12-04T05:45:18;92767.38;;;20.09;40.87
74336;BME280;62755;-33.398;-70.572;2023-12-04T05:47:47;92757.03;;;20.13;40.80
74336;BME280;62755;-33.398;-70.572;2023-12-04T05:50:17;92757.66;;;20.48;39.90
74336;BME280;62755;-33.398;-70.572;2023-12-04T05:52:47;92754.22;;;20.48;40.00
74336;BME280;62755;-33.398;-70.572;2023-12-04T05:55:17;92747.16;;;20.61;39.71
74336;BME280;62755;-33.398;-70.572;2023-12-04T05:57:47;92749.13;;;20.92;39.06
74336;BME280;62755;-33.398;-70.572;2023-12-04T06:00:19;92747.91;;;20.93;39.26
74336;BME280;62755;-33.398;-70.572;2023-12-04T06:02:49;92739.25;;;20.63;39.55
74336;BME280;62755;-33.398;-70.572;2023-12-04T06:05:18;92739.50;;;20.65;39.88
74336;BME280;62755;-33.398;-70.572;2023-12-04T06:07:48;92736.78;;;20.65;40.05
74336;BME280;62755;-33.398;-70.572;2023-12-04T06:10:18;92731.06;;;20.94;39.75
74336;BME280;62755;-33.398;-70.572;2023-12-04T06:12:47;92730.88;;;20.72;39.73
74336;BME280;62755;-33.398;-70.572;2023-12-04T06:15:19;92724.22;;;20.73;39.84
74336;BME280;62755;-33.398;-70.572;2023-12-04T06:17:48;92720.84;;;20.58;40.45
74336;BME280;62755;-33.398;-70.572;2023-12-04T06:20:18;92721.56;;;20.53;40.49
74336;BME280;62755;-33.398;-70.572;2023-12-04T06:22:48;92724.53;;;20.24;40.93
74336;BME280;62755;-33.398;-70.572;2023-12-04T06:25:19;92725.34;;;20.10;41.01
74336;BME280;62755;-33.398;-70.572;2023-12-04T06:27:49;92719.91;;;20.10;41.32
74336;BME280;62755;-33.398;-70.572;2023-12-04T06:30:21;92716.34;;;20.24;40.90
74336;BME280;62755;-33.398;-70.572;2023-12-04T06:32:51;92719.00;;;20.19;41.26
74336;BME280;62755;-33.398;-70.572;2023-12-04T06:35:22;92715.22;;;20.36;40.83
74336;BME280;62755;-33.398;-70.572;2023-12-04T06:37:54;92717.31;;;20.21;41.20
74336;BME280;62755;-33.398;-70.572;2023-12-04T06:40:24;92710.81;;;20.44;41.11
74336;BME280;62755;-33.398;-70.572;2023-12-04T06:42:54;92714.50;;;20.15;41.49
74336;BME280;62755;-33.398;-70.572;2023-12-04T06:45:26;92709.53;;;20.14;41.32
74336;BME280;62755;-33.398;-70.572;2023-12-04T06:47:57;92708.03;;;20.13;41.47
74336;BME280;62755;-33.398;-70.572;2023-12-04T06:50:28;92711.72;;;20.30;41.20
74336;BME280;62755;-33.398;-70.572;2023-12-04T06:52:57;92717.16;;;20.10;41.35
74336;BME280;62755;-33.398;-70.572;2023-12-04T06:55:27;92712.75;;;20.12;41.36
74336;BME280;62755;-33.398;-70.572;2023-12-04T06:57:56;92704.28;;;19.85;41.64
74336;BME280;62755;-33.398;-70.572;2023-12-04T07:00:28;92710.81;;;19.93;41.82
74336;BME280;62755;-33.398;-70.572;2023-12-04T07:02:58;92704.38;;;20.16;41.55
74336;BME280;62755;-33.398;-70.572;2023-12-04T07:05:27;92708.47;;;20.06;41.67
74336;BME280;62755;-33.398;-70.572;2023-12-04T07:07:57;92697.03;;;20.02;41.53
74336;BME280;62755;-33.398;-70.572;2023-12-04T07:10:27;92697.47;;;19.95;41.65
74336;BME280;62755;-33.398;-70.572;2023-12-04T07:12:56;92702.25;;;19.80;41.85
74336;BME280;62755;-33.398;-70.572;2023-12-04T07:15:28;92690.50;;;19.68;41.81
74336;BME280;62755;-33.398;-70.572;2023-12-04T07:17:57;92699.75;;;19.76;42.10
74336;BME280;62755;-33.398;-70.572;2023-12-04T07:20:27;92693.16;;;19.63;42.03
74336;BME280;62755;-33.398;-70.572;2023-12-04T07:22:56;92706.75;;;19.83;41.35
74336;BME280;62755;-33.398;-70.572;2023-12-04T07:25:26;92697.44;;;19.69;41.46
74336;BME280;62755;-33.398;-70.572;2023-12-04T07:27:56;92693.34;;;19.79;41.35
74336;BME280;62755;-33.398;-70.572;2023-12-04T07:30:28;92698.66;;;20.14;40.63
74336;BME280;62755;-33.398;-70.572;2023-12-04T07:32:57;92704.31;;;20.10;40.27
74336;BME280;62755;-33.398;-70.572;2023-12-04T07:35:27;92696.94;;;19.91;40.09
74336;BME280;62755;-33.398;-70.572;2023-12-04T07:37:56;92694.59;;;20.04;40.24
74336;BME280;62755;-33.398;-70.572;2023-12-04T07:40:26;92696.06;;;20.05;40.13
74336;BME280;62755;-33.398;-70.572;2023-12-04T07:42:56;92702.59;;;20.13;40.02
74336;BME280;62755;-33.398;-70.572;2023-12-04T07:45:27;92688.72;;;20.11;39.96
74336;BME280;62755;-33.398;-70.572;2023-12-04T07:47:57;92688.44;;;20.09;40.16
74336;BME280;62755;-33.398;-70.572;2023-12-04T07:50:26;92693.28;;;20.20;40.09
74336;BME280;62755;-33.398;-70.572;2023-12-04T07:52:56;92702.91;;;20.46;40.23
74336;BME280;62755;-33.398;-70.572;2023-12-04T07:55:26;92689.13;;;20.55;40.41
74336;BME280;62755;-33.398;-70.572;2023-12-04T07:57:55;92689.22;;;20.66;40.57
74336;BME280;62755;-33.398;-70.572;2023-12-04T08:00:27;92694.59;;;20.55;40.98
74336;BME280;62755;-33.398;-70.572;2023-12-04T08:02:57;92691.25;;;20.71;40.94
74336;BME280;62755;-33.398;-70.572;2023-12-04T08:05:26;92685.28;;;20.67;40.93
74336;BME280;62755;-33.398;-70.572;2023-12-04T08:07:56;92695.53;;;20.52;40.43
74336;BME280;62755;-33.398;-70.572;2023-12-04T08:10:26;92695.28;;;19.73;41.58
74336;BME280;62755;-33.398;-70.572;2023-12-04T08:12:56;92692.34;;;20.02;42.53
74336;BME280;62755;-33.398;-70.572;2023-12-04T08:15:27;92686.06;;;20.17;43.01
74336;BME280;62755;-33.398;-70.572;2023-12-04T08:17:57;92686.41;;;20.24;43.18
74336;BME280;62755;-33.398;-70.572;2023-12-04T08:20:27;92680.94;;;20.24;43.09
74336;BME280;62755;-33.398;-70.572;2023-12-04T08:22:57;92692.66;;;20.30;43.00
74336;BME280;62755;-33.398;-70.572;2023-12-04T08:25:26;92691.63;;;20.28;42.60
74336;BME280;62755;-33.398;-70.572;2023-12-04T08:27:58;92696.59;;;19.83;42.67
74336;BME280;62755;-33.398;-70.572;2023-12-04T08:30:30;92694.25;;;19.71;42.94
74336;BME280;62755;-33.398;-70.572;2023-12-04T08:32:59;92690.53;;;19.13;44.00
74336;BME280;62755;-33.398;-70.572;2023-12-04T08:35:29;92698.38;;;19.26;44.17
74336;BME280;62755;-33.398;-70.572;2023-12-04T08:37:59;92690.94;;;19.61;43.76
74336;BME280;62755;-33.398;-70.572;2023-12-04T08:40:28;92688.53;;;19.69;43.99
74336;BME280;62755;-33.398;-70.572;2023-12-04T08:42:59;92692.97;;;19.92;44.00
74336;BME280;62755;-33.398;-70.572;2023-12-04T08:45:31;92694.78;;;19.75;44.22
74336;BME280;62755;-33.398;-70.572;2023-12-04T08:48:00;92685.13;;;19.54;44.04
74336;BME280;62755;-33.398;-70.572;2023-12-04T08:50:30;92695.50;;;19.50;45.01
74336;BME280;62755;-33.398;-70.572;2023-12-04T08:52:59;92699.66;;;19.30;45.42
74336;BME280;62755;-33.398;-70.572;2023-12-04T08:55:29;92690.22;;;19.46;45.14
74336;BME280;62755;-33.398;-70.572;2023-12-04T08:57:59;92699.84;;;19.07;45.35
74336;BME280;62755;-33.398;-70.572;2023-12-04T09:03:06;92706.00;;;18.87;46.34
74336;BME280;62755;-33.398;-70.572;2023-12-04T09:05:36;92705.75;;;19.05;45.78
74336;BME280;62755;-33.398;-70.572;2023-12-04T09:08:06;92711.41;;;19.02;45.07
74336;BME280;62755;-33.398;-70.572;2023-12-04T09:10:35;92708.19;;;19.03;44.27
74336;BME280;62755;-33.398;-70.572;2023-12-04T09:13:06;92704.53;;;19.26;43.42
74336;BME280;62755;-33.398;-70.572;2023-12-04T09:15:35;92701.75;;;19.36;43.53
74336;BME280;62755;-33.398;-70.572;2023-12-04T09:18:07;92706.59;;;19.32;43.31
74336;BME280;62755;-33.398;-70.572;2023-12-04T09:20:37;92707.19;;;19.36;43.41
74336;BME280;62755;-33.398;-70.572;2023-12-04T09:23:06;92706.66;;;19.17;43.60
74336;BME280;62755;-33.398;-70.572;2023-12-04T09:25:36;92701.16;;;19.32;43.30
74336;BME280;62755;-33.398;-70.572;2023-12-04T09:28:06;92716.16;;;19.42;42.99
74336;BME280;62755;-33.398;-70.572;2023-12-04T09:30:37;92709.97;;;19.26;43.27
74336;BME280;62755;-33.398;-70.572;2023-12-04T09:33:08;92712.81;;;18.97;45.02
74336;BME280;62755;-33.398;-70.572;2023-12-04T09:35:38;92707.88;;;18.81;44.42
74336;BME280;62755;-33.398;-70.572;2023-12-04T09:38:07;92714.59;;;19.00;44.68
74336;BME280;62755;-33.398;-70.572;2023-12-04T09:40:37;92719.31;;;19.20;44.71
74336;BME280;62755;-33.398;-70.572;2023-12-04T09:43:07;92720.19;;;18.97;45.21
74336;BME280;62755;-33.398;-70.572;2023-12-04T09:45:37;92724.69;;;18.65;45.25
74336;BME280;62755;-33.398;-70.572;2023-12-04T09:48:09;92720.19;;;18.62;45.67
74336;BME280;62755;-33.398;-70.572;2023-12-04T09:50:39;92722.13;;;18.76;45.18
74336;BME280;62755;-33.398;-70.572;2023-12-04T09:53:11;92722.47;;;18.98;44.41
74336;BME280;62755;-33.398;-70.572;2023-12-04T09:55:41;92723.50;;;19.21;43.46
74336;BME280;62755;-33.398;-70.572;2023-12-04T09:58:14;92710.78;;;19.12;43.58
74336;BME280;62755;-33.398;-70.572;2023-12-04T10:00:45;92716.41;;;19.09;43.46
74336;BME280;62755;-33.398;-70.572;2023-12-04T10:03:17;92726.75;;;19.05;43.48
74336;BME280;62755;-33.398;-70.572;2023-12-04T10:05:47;92730.69;;;19.04;44.01
74336;BME280;62755;-33.398;-70.572;2023-12-04T10:08:17;92732.03;;;18.94;44.11
74336;BME280;62755;-33.398;-70.572;2023-12-04T10:10:47;92735.22;;;18.92;44.33
74336;BME280;62755;-33.398;-70.572;2023-12-04T10:13:17;92729.94;;;19.03;44.35
74336;BME280;62755;-33.398;-70.572;2023-12-04T10:15:47;92734.47;;;18.77;44.49
74336;BME280;62755;-33.398;-70.572;2023-12-04T10:18:30;92732.00;;;19.08;43.89
74336;BME280;62755;-33.398;-70.572;2023-12-04T10:21:00;92738.09;;;19.03;44.10
74336;BME280;62755;-33.398;-70.572;2023-12-04T10:23:38;92738.50;;;19.16;43.92
74336;BME280;62755;-33.398;-70.572;2023-12-04T10:26:08;92747.03;;;18.89;44.12
74336;BME280;62755;-33.398;-70.572;2023-12-04T10:28:37;92744.31;;;18.89;44.45
74336;BME280;62755;-33.398;-70.572;2023-12-04T10:31:08;92739.91;;;18.77;44.51
74336;BME280;62755;-33.398;-70.572;2023-12-04T10:33:39;92743.69;;;18.65;45.19
74336;BME280;62755;-33.398;-70.572;2023-12-04T10:36:12;92746.09;;;18.78;44.50
74336;BME280;62755;-33.398;-70.572;2023-12-04T10:38:42;92754.91;;;18.87;44.43
74336;BME280;62755;-33.398;-70.572;2023-12-04T10:41:13;92748.44;;;19.19;43.44
74336;BME280;62755;-33.398;-70.572;2023-12-04T10:43:47;92752.16;;;19.37;43.54
74336;BME280;62755;-33.398;-70.572;2023-12-04T10:46:18;92752.34;;;19.48;43.05
74336;BME280;62755;-33.398;-70.572;2023-12-04T10:48:50;92728.06;;;19.09;43.59
74336;BME280;62755;-33.398;-70.572;2023-12-04T10:51:20;92755.16;;;19.04;44.16
74336;BME280;62755;-33.398;-70.572;2023-12-04T10:53:50;92757.66;;;19.07;44.18
74336;BME280;62755;-33.398;-70.572;2023-12-04T10:56:27;92757.72;;;19.27;44.15
74336;BME280;62755;-33.398;-70.572;2023-12-04T10:58:58;92740.38;;;19.25;44.04
74336;BME280;62755;-33.398;-70.572;2023-12-04T11:01:30;92762.94;;;19.46;44.14
74336;BME280;62755;-33.398;-70.572;2023-12-04T11:04:03;92760.75;;;19.50;44.11
74336;BME280;62755;-33.398;-70.572;2023-12-04T11:06:35;92758.00;;;19.29;44.42
74336;BME280;62755;-33.398;-70.572;2023-12-04T11:09:09;92758.56;;;19.34;44.84
74336;BME280;62755;-33.398;-70.572;2023-12-04T11:11:45;92766.59;;;19.43;44.85
74336;BME280;62755;-33.398;-70.572;2023-12-04T11:14:18;92728.19;;;19.20;44.90
74336;BME280;62755;-33.398;-70.572;2023-12-04T11:16:51;92756.81;;;19.71;43.66
74336;BME280;62755;-33.398;-70.572;2023-12-04T11:19:37;92757.63;;;19.77;43.65
74336;BME280;62755;-33.398;-70.572;2023-12-04T11:22:10;92754.50;;;19.84;43.14
74336;BME280;62755;-33.398;-70.572;2023-12-04T11:24:41;92750.84;;;19.87;43.40
74336;BME280;62755;-33.398;-70.572;2023-12-04T11:27:11;92760.28;;;19.71;43.28
74336;BME280;62755;-33.398;-70.572;2023-12-04T11:29:41;92758.50;;;19.48;43.05
74336;BME280;62755;-33.398;-70.572;2023-12-04T11:32:14;92769.06;;;19.81;42.75
74336;BME280;62755;-33.398;-70.572;2023-12-04T11:34:55;92766.63;;;19.83;42.58
74336;BME280;62755;-33.398;-70.572;2023-12-04T11:37:25;92764.28;;;19.76;42.37
74336;BME280;62755;-33.398;-70.572;2023-12-04T11:39:55;92759.25;;;19.89;42.00
74336;BME280;62755;-33.398;-70.572;2023-12-04T11:42:26;92769.88;;;19.87;42.14
74336;BME280;62755;-33.398;-70.572;2023-12-04T11:44:57;92753.94;;;19.60;42.41
74336;BME280;62755;-33.398;-70.572;2023-12-04T11:47:29;92741.59;;;19.59;41.42
74336;BME280;62755;-33.398;-70.572;2023-12-04T11:50:01;92746.28;;;19.58;41.67
74336;BME280;62755;-33.398;-70.572;2023-12-04T11:52:34;92763.47;;;19.70;42.23
74336;BME280;62755;-33.398;-70.572;2023-12-04T11:55:05;92770.88;;;19.89;41.89
74336;BME280;62755;-33.398;-70.572;2023-12-04T11:57:36;92721.03;;;19.78;41.22
74336;BME280;62755;-33.398;-70.572;2023-12-04T12:00:20;92763.31;;;20.19;41.44
74336;BME280;62755;-33.398;-70.572;2023-12-04T12:03:14;92766.19;;;20.30;41.23
74336;BME280;62755;-33.398;-70.572;2023-12-04T12:05:46;92760.19;;;20.26;41.27
74336;BME280;62755;-33.398;-70.572;2023-12-04T12:08:18;92769.69;;;20.36;44.54
74336;BME280;62755;-33.398;-70.572;2023-12-04T12:10:48;92771.66;;;20.15;42.69
74336;BME280;62755;-33.398;-70.572;2023-12-04T12:13:19;92764.22;;;20.10;42.54
74336;BME280;62755;-33.398;-70.572;2023-12-04T12:15:51;92772.03;;;20.23;42.81
74336;BME280;62755;-33.398;-70.572;2023-12-04T12:18:22;92772.56;;;20.27;43.24
74336;BME280;62755;-33.398;-70.572;2023-12-04T12:20:55;92772.88;;;20.35;43.03
74336;BME280;62755;-33.398;-70.572;2023-12-04T12:23:26;92772.88;;;20.35;43.10
74336;BME280;62755;-33.398;-70.572;2023-12-04T12:25:56;92774.75;;;20.23;43.16
74336;BME280;62755;-33.398;-70.572;2023-12-04T12:28:27;92773.84;;;20.11;43.05
74336;BME280;62755;-33.398;-70.572;2023-12-04T12:31:01;92777.28;;;20.06;41.65
74336;BME280;62755;-33.398;-70.572;2023-12-04T12:33:31;92773.81;;;20.06;41.59
74336;BME280;62755;-33.398;-70.572;2023-12-04T12:36:02;92770.38;;;20.11;41.47
74336;BME280;62755;-33.398;-70.572;2023-12-04T12:38:32;92771.88;;;20.12;42.69
74336;BME280;62755;-33.398;-70.572;2023-12-04T12:41:06;92768.94;;;20.36;42.30
74336;BME280;62755;-33.398;-70.572;2023-12-04T12:43:38;92771.09;;;20.26;42.30
74336;BME280;62755;-33.398;-70.572;2023-12-04T12:46:08;92773.38;;;20.13;42.33
74336;BME280;62755;-33.398;-70.572;2023-12-04T12:48:38;92772.25;;;20.20;42.50
74336;BME280;62755;-33.398;-70.572;2023-12-04T12:51:09;92770.09;;;20.29;42.41